createdAt,value
2022-08-29T00:00:28.368Z,54.92
2022-08-29T00:03:01.182Z,54.95
2022-08-29T00:05:34.419Z,54.68
2022-08-29T00:08:06.829Z,54.80
2022-08-29T00:10:38.748Z,55.38
2022-08-29T00:13:10.847Z,54.95
2022-08-29T00:15:44.915Z,54.98
2022-08-29T00:18:18.131Z,54.82
2022-08-29T00:20:48.305Z,54.63
2022-08-29T00:23:18.956Z,55.02
2022-08-29T00:25:49.506Z,55.37
2022-08-29T00:28:19.420Z,55.02
2022-08-29T00:30:50.088Z,55.05
2022-08-29T00:33:21.583Z,54.99
2022-08-29T00:35:51.462Z,54.44
2022-08-29T00:38:22.170Z,54.70
2022-08-29T00:40:59.006Z,54.83
2022-08-29T00:43:31.719Z,54.87
2022-08-29T00:46:11.175Z,54.89
2022-08-29T00:48:43.419Z,54.86
2022-08-29T00:51:18.455Z,54.86
2022-08-29T00:53:53.737Z,54.74
2022-08-29T00:56:23.789Z,55.07
2022-08-29T00:58:56.845Z,54.94
2022-08-29T01:01:27.030Z,54.75
2022-08-29T01:03:58.419Z,54.63
2022-08-29T01:06:29.891Z,54.82
2022-08-29T01:09:00.028Z,55.42
2022-08-29T01:11:54.114Z,55.13
2022-08-29T01:14:27.234Z,55.36
2022-08-29T01:16:59.950Z,55.36
2022-08-29T01:19:42.529Z,55.67
2022-08-29T01:22:35.033Z,55.78
2022-08-29T01:25:09.580Z,56.59
2022-08-29T01:27:43.208Z,56.70
2022-08-29T01:30:15.169Z,56.45
2022-08-29T01:32:45.073Z,56.29
2022-08-29T01:35:15.079Z,56.34
2022-08-29T01:37:45.431Z,56.06
2022-08-29T01:40:16.763Z,55.85
2022-08-29T01:42:47.860Z,54.85
2022-08-29T01:45:17.822Z,54.75
2022-08-29T01:47:48.353Z,54.85
2022-08-29T01:50:18.424Z,54.21
2022-08-29T01:52:48.434Z,54.29
2022-08-29T01:55:19.804Z,54.45
2022-08-29T01:57:50.073Z,54.15
2022-08-29T02:00:21.608Z,54.69
2022-08-29T02:02:51.648Z,54.63
2022-08-29T02:05:23.080Z,54.68
2022-08-29T02:07:53.414Z,54.50
2022-08-29T02:10:24.923Z,54.96
2022-08-29T02:12:55.329Z,54.79
2022-08-29T02:15:25.850Z,54.95
2022-08-29T02:17:55.683Z,54.62
2022-08-29T02:20:25.627Z,54.28
2022-08-29T02:22:55.607Z,54.33
2022-08-29T02:25:47.574Z,54.05
2022-08-29T02:28:20.397Z,54.42
2022-08-29T02:30:56.586Z,54.53
2022-08-29T02:33:28.973Z,54.71
2022-08-29T02:35:59.618Z,54.55
2022-08-29T02:38:31.089Z,54.63
2022-08-29T02:41:02.583Z,54.73
2022-08-29T02:43:32.583Z,54.68
2022-08-29T02:46:02.807Z,54.41
2022-08-29T02:48:33.570Z,54.37
2022-08-29T02:51:03.548Z,54.53
2022-08-29T02:53:33.721Z,54.96
2022-08-29T02:56:05.254Z,55.01
2022-08-29T02:58:38.908Z,55.25
2022-08-29T03:01:09.607Z,55.40
2022-08-29T03:03:39.995Z,55.28
2022-08-29T03:06:10.779Z,55.32
2022-08-29T03:08:41.259Z,55.55
2022-08-29T03:11:12.654Z,55.82
2022-08-29T03:13:43.159Z,55.57
2022-08-29T03:16:14.563Z,55.46
2022-08-29T03:18:44.491Z,55.66
2022-08-29T03:21:19.693Z,55.84
2022-08-29T03:23:50.733Z,55.83
2022-08-29T03:26:23.689Z,55.71
2022-08-29T03:28:54.234Z,55.73
2022-08-29T03:31:24.164Z,55.71
2022-08-29T03:33:54.191Z,55.90
2022-08-29T03:36:26.863Z,56.10
2022-08-29T03:38:56.950Z,56.01
2022-08-29T03:41:30.211Z,56.00
2022-08-29T03:44:00.462Z,56.28
2022-08-29T03:46:30.432Z,56.71
2022-08-29T03:49:00.341Z,56.77
2022-08-29T03:51:31.690Z,56.84
2022-08-29T03:54:01.762Z,56.46
2022-08-29T03:56:33.874Z,56.66
2022-08-29T03:59:04.821Z,56.30
2022-08-29T04:01:36.161Z,56.56
2022-08-29T04:04:06.925Z,56.92
2022-08-29T04:06:36.803Z,56.32
2022-08-29T04:09:06.736Z,56.30
2022-08-29T04:11:38.598Z,56.30
2022-08-29T04:14:09.076Z,56.37
2022-08-29T04:16:39.440Z,56.01
2022-08-29T04:19:09.582Z,56.31
2022-08-29T04:21:39.468Z,56.51
2022-08-29T04:24:09.363Z,56.52
2022-08-29T04:26:41.213Z,56.67
2022-08-29T04:29:14.316Z,56.65
2022-08-29T04:31:44.886Z,56.88
2022-08-29T04:34:14.916Z,56.92
2022-08-29T04:36:45.707Z,56.68
2022-08-29T04:39:15.873Z,57.19
2022-08-29T04:41:47.019Z,57.25
2022-08-29T04:44:16.867Z,57.10
2022-08-29T04:46:46.776Z,56.91
2022-08-29T04:49:16.732Z,57.22
2022-08-29T04:51:48.127Z,57.73
2022-08-29T04:54:18.325Z,57.45
2022-08-29T04:56:49.571Z,57.71
2022-08-29T04:59:20.995Z,57.50
2022-08-29T05:01:51.409Z,57.50
2022-08-29T05:04:21.437Z,57.42
2022-08-29T05:06:51.303Z,57.32
2022-08-29T05:09:22.169Z,57.01
2022-08-29T05:11:54.132Z,57.48
2022-08-29T05:14:24.671Z,57.07
2022-08-29T05:16:54.871Z,57.06
2022-08-29T05:19:24.829Z,56.70
2022-08-29T05:21:57.986Z,56.45
2022-08-29T05:24:28.378Z,56.27
2022-08-29T05:27:00.023Z,56.28
2022-08-29T05:29:30.465Z,56.65
2022-08-29T05:32:00.497Z,56.60
2022-08-29T05:34:34.048Z,56.96
2022-08-29T05:37:07.653Z,56.99
2022-08-29T05:39:39.487Z,56.90
2022-08-29T05:42:11.966Z,57.15
2022-08-29T05:44:42.252Z,56.68
2022-08-29T05:47:14.290Z,56.74
2022-08-29T05:49:45.412Z,56.52
2022-08-29T05:52:18.119Z,56.38
2022-08-29T05:54:48.274Z,55.97
2022-08-29T05:57:24.403Z,56.59
2022-08-29T05:59:55.181Z,56.98
2022-08-29T06:02:25.513Z,56.89
2022-08-29T06:04:57.208Z,56.79
2022-08-29T06:07:27.565Z,56.39
2022-08-29T06:10:03.268Z,56.68
2022-08-29T06:12:36.035Z,56.46
2022-08-29T06:15:07.456Z,56.71
2022-08-29T06:17:38.458Z,56.53
2022-08-29T06:20:11.362Z,56.35
2022-08-29T06:22:41.453Z,56.35
2022-08-29T06:25:35.547Z,56.12
2022-08-29T06:28:03.131Z,56.22
2022-08-29T06:30:36.109Z,56.29
2022-08-29T06:33:06.078Z,56.05
2022-08-29T06:35:37.848Z,56.10
2022-08-29T06:38:11.984Z,56.47
2022-08-29T06:40:43.807Z,56.46
2022-08-29T06:43:15.227Z,56.39
2022-08-29T06:45:45.790Z,56.12
2022-08-29T06:48:15.864Z,56.16
2022-08-29T06:50:46.003Z,56.20
2022-08-29T06:53:27.394Z,56.59
2022-08-29T06:56:06.511Z,56.87
2022-08-29T06:58:43.002Z,56.81
2022-08-29T07:01:15.068Z,56.57
2022-08-29T07:03:45.170Z,56.59
2022-08-29T07:06:15.208Z,55.85
2022-08-29T07:08:55.478Z,55.89
2022-08-29T07:11:27.839Z,54.84
2022-08-29T07:14:01.748Z,54.61
2022-08-29T07:16:33.519Z,53.64
2022-08-29T07:19:04.031Z,54.22
2022-08-29T07:21:34.163Z,53.90
2022-08-29T07:24:04.745Z,53.77
2022-08-29T07:26:38.863Z,53.39
2022-08-29T07:29:18.079Z,53.52
2022-08-29T07:31:48.947Z,53.10
2022-08-29T07:34:20.897Z,52.59
2022-08-29T07:36:50.940Z,52.49
2022-08-29T07:39:22.188Z,51.95
2022-08-29T07:41:52.816Z,52.10
2022-08-29T07:44:24.248Z,52.10
2022-08-29T07:46:57.063Z,51.72
2022-08-29T07:49:40.183Z,51.78
2022-08-29T07:52:12.331Z,52.10
2022-08-29T07:54:42.421Z,51.58
2022-08-29T07:57:12.903Z,51.57
2022-08-29T07:59:44.349Z,51.34
2022-08-29T08:02:14.776Z,51.10
2022-08-29T08:04:45.293Z,50.92
2022-08-29T08:07:15.512Z,50.02
2022-08-29T08:09:47.283Z,50.41
2022-08-29T08:12:17.966Z,50.77
2022-08-29T08:14:49.759Z,49.63
2022-08-29T08:17:19.897Z,49.28
2022-08-29T08:19:49.825Z,48.44
2022-08-29T08:22:19.849Z,48.64
2022-08-29T08:24:50.041Z,48.78
2022-08-29T08:27:20.560Z,48.27
2022-08-29T08:29:51.765Z,48.08
2022-08-29T08:32:32.237Z,47.79
2022-08-29T08:35:02.950Z,47.56
2022-08-29T08:37:32.853Z,46.75
2022-08-29T08:40:02.911Z,46.77
2022-08-29T08:42:42.751Z,47.27
2022-08-29T08:45:16.915Z,48.66
2022-08-29T08:47:51.380Z,47.60
2022-08-29T08:50:29.443Z,47.96
2022-08-29T08:53:04.368Z,47.98
2022-08-29T08:55:42.722Z,48.33
2022-08-29T08:58:19.236Z,46.81
2022-08-29T09:01:04.702Z,46.27
2022-08-29T09:04:11.168Z,47.10
2022-08-29T09:06:59.392Z,46.41
2022-08-29T09:09:42.684Z,45.79
2022-08-29T09:12:33.662Z,45.13
2022-08-29T09:15:13.375Z,45.91
2022-08-29T09:17:49.258Z,44.50
2022-08-29T09:20:23.424Z,44.37
2022-08-29T09:23:00.858Z,44.95
2022-08-29T09:25:31.795Z,46.20
2022-08-29T09:28:01.988Z,44.76
2022-08-29T09:30:34.084Z,44.87
2022-08-29T09:33:09.207Z,44.17
2022-08-29T09:35:45.619Z,45.04
2022-08-29T09:38:23.811Z,45.34
2022-08-29T09:40:56.433Z,42.55
2022-08-29T09:43:28.818Z,43.13
2022-08-29T09:46:25.053Z,43.60
2022-08-29T09:49:14.490Z,43.47
2022-08-29T09:51:46.299Z,42.35
2022-08-29T09:54:25.041Z,43.52
2022-08-29T09:57:00.460Z,43.24
2022-08-29T09:59:34.680Z,43.72
2022-08-29T10:02:24.899Z,42.81
2022-08-29T10:05:00.737Z,41.77
2022-08-29T10:07:33.854Z,42.42
2022-08-29T10:10:16.102Z,42.59
2022-08-29T10:12:55.555Z,42.07
2022-08-29T10:15:49.437Z,41.62
2022-08-29T10:18:25.077Z,41.13
2022-08-29T10:21:13.204Z,39.99
2022-08-29T10:23:57.686Z,40.68
2022-08-29T10:26:36.039Z,41.02
2022-08-29T10:29:31.472Z,39.87
2022-08-29T10:32:15.158Z,38.97
2022-08-29T10:35:01.929Z,39.12
2022-08-29T10:37:46.664Z,37.76
2022-08-29T10:40:26.088Z,38.44
2022-08-29T10:43:31.365Z,39.03
2022-08-29T10:46:13.400Z,39.28
2022-08-29T10:48:52.859Z,39.13
2022-08-29T10:51:33.174Z,38.67
2022-08-29T10:54:14.395Z,38.00
2022-08-29T10:56:47.722Z,37.99
2022-08-29T10:59:27.871Z,38.29
2022-08-29T11:02:02.031Z,37.54
2022-08-29T11:04:38.439Z,37.77
2022-08-29T11:07:16.263Z,35.31
2022-08-29T11:09:51.572Z,35.90
2022-08-29T11:12:28.583Z,35.62
2022-08-29T11:15:03.908Z,35.92
2022-08-29T11:17:40.757Z,34.63
2022-08-29T11:20:15.919Z,34.12
2022-08-29T11:22:51.997Z,32.81
2022-08-29T11:25:23.714Z,32.79
2022-08-29T11:28:04.263Z,34.06
2022-08-29T11:30:46.089Z,33.52
2022-08-29T11:33:31.087Z,33.84
2022-08-29T11:36:09.527Z,34.46
2022-08-29T11:38:53.826Z,35.71
2022-08-29T11:41:30.058Z,33.90
2022-08-29T11:44:14.092Z,33.06
2022-08-29T11:46:44.914Z,32.30
2022-08-29T11:49:40.245Z,33.36
2022-08-29T11:52:22.547Z,37.54
2022-08-29T11:55:22.538Z,34.96
2022-08-29T11:58:05.750Z,34.12
2022-08-29T12:00:47.083Z,33.37
2022-08-29T12:03:54.636Z,32.67
2022-08-29T12:06:32.095Z,33.44
2022-08-29T12:09:13.379Z,33.25
2022-08-29T12:12:14.023Z,33.02
2022-08-29T12:14:48.262Z,33.09
2022-08-29T12:18:00.889Z,34.34
2022-08-29T12:20:42.985Z,35.60
2022-08-29T12:23:27.702Z,32.45
2022-08-29T12:28:58.935Z,30.29
2022-08-29T12:31:56.902Z,30.39
2022-08-29T12:34:51.015Z,31.91
2022-08-29T12:37:54.163Z,31.49
2022-08-29T12:40:47.055Z,31.70
2022-08-29T12:43:41.448Z,32.59
2022-08-29T12:46:24.332Z,32.23
2022-08-29T12:49:04.333Z,32.95
2022-08-29T12:51:40.654Z,31.79
2022-08-29T12:54:13.003Z,31.55
2022-08-29T12:56:48.884Z,31.97
2022-08-29T12:59:21.485Z,31.08
2022-08-29T13:01:55.925Z,31.30
2022-08-29T13:04:32.505Z,32.37
2022-08-29T13:07:05.181Z,32.30
2022-08-29T13:09:39.121Z,33.57
2022-08-29T13:12:12.168Z,32.50
2022-08-29T13:15:00.818Z,32.16
2022-08-29T13:17:35.079Z,32.83
2022-08-29T13:20:45.992Z,32.37
2022-08-29T13:23:26.760Z,32.60
2022-08-29T13:26:01.106Z,34.20
2022-08-29T13:28:38.487Z,33.13
2022-08-29T13:31:25.812Z,34.92
2022-08-29T13:34:19.402Z,35.08
2022-08-29T13:37:02.688Z,35.42
2022-08-29T13:39:44.694Z,34.34
2022-08-29T13:42:24.187Z,34.65
2022-08-29T13:45:16.148Z,35.57
2022-08-29T13:48:03.819Z,36.46
2022-08-29T13:50:33.937Z,37.82
2022-08-29T13:53:05.304Z,39.18
2022-08-29T13:55:36.466Z,37.81
2022-08-29T13:58:06.304Z,37.38
2022-08-29T14:00:36.372Z,38.15
2022-08-29T14:03:09.294Z,38.33
2022-08-29T14:05:39.519Z,37.57
2022-08-29T14:08:13.760Z,37.49
2022-08-29T14:10:44.202Z,34.58
2022-08-29T14:13:14.951Z,32.95
2022-08-29T14:15:45.853Z,32.38
2022-08-29T14:18:16.368Z,33.06
2022-08-29T14:20:47.701Z,32.22
2022-08-29T14:23:22.698Z,32.72
2022-08-29T14:25:53.316Z,33.73
2022-08-29T14:28:23.177Z,32.73
2022-08-29T14:30:53.378Z,32.54
2022-08-29T14:33:24.092Z,33.27
2022-08-29T14:35:54.996Z,32.88
2022-08-29T14:38:26.262Z,33.51
2022-08-29T14:40:56.652Z,33.33
2022-08-29T14:43:26.572Z,34.58
2022-08-29T14:45:56.607Z,35.99
2022-08-29T14:48:30.122Z,35.46
2022-08-29T14:51:01.751Z,35.80
2022-08-29T14:53:37.416Z,34.33
2022-08-29T14:56:37.565Z,33.63
2022-08-29T14:59:07.015Z,30.97
2022-08-29T15:01:37.398Z,29.90
2022-08-29T15:04:07.411Z,32.84
2022-08-29T15:06:38.000Z,33.71
2022-08-29T15:09:09.457Z,34.16
2022-08-29T15:11:40.051Z,33.26
2022-08-29T15:14:11.842Z,32.62
2022-08-29T15:16:42.309Z,33.36
2022-08-29T15:19:45.089Z,34.92
2022-08-29T15:22:02.317Z,33.80
2022-08-29T15:24:34.122Z,32.17
2022-08-29T15:27:05.513Z,32.20
2022-08-29T15:29:37.300Z,32.96
2022-08-29T15:32:07.579Z,32.68
2022-08-29T15:34:37.497Z,32.58
2022-08-29T15:37:08.492Z,35.81
2022-08-29T15:39:40.349Z,36.66
2022-08-29T15:42:17.226Z,35.43
2022-08-29T15:44:47.885Z,36.31
2022-08-29T15:47:21.533Z,36.64
2022-08-29T15:50:02.758Z,36.46
2022-08-29T15:52:33.486Z,35.97
2022-08-29T15:55:05.486Z,36.33
2022-08-29T15:57:50.949Z,36.90
2022-08-29T16:00:30.358Z,36.48
2022-08-29T16:03:03.428Z,37.99
2022-08-29T16:05:34.291Z,37.94
2022-08-29T16:08:04.607Z,37.92
2022-08-29T16:10:36.192Z,38.08
2022-08-29T16:13:07.162Z,35.26
2022-08-29T16:15:37.636Z,35.72
2022-08-29T16:18:07.848Z,35.01
2022-08-29T16:20:40.867Z,34.50
2022-08-29T16:23:13.360Z,34.51
2022-08-29T16:25:44.877Z,34.84
2022-08-29T16:28:15.054Z,34.82
2022-08-29T16:30:46.046Z,34.83
2022-08-29T16:33:16.232Z,34.92
2022-08-29T16:35:46.414Z,35.51
2022-08-29T16:38:16.942Z,36.24
2022-08-29T16:40:48.781Z,36.31
2022-08-29T16:43:19.237Z,36.59
2022-08-29T16:45:49.263Z,36.63
2022-08-29T16:48:19.563Z,35.95
2022-08-29T16:50:49.641Z,36.96
2022-08-29T16:53:19.918Z,36.88
2022-08-29T16:55:51.306Z,37.25
2022-08-29T16:58:38.791Z,37.19
2022-08-29T17:01:09.809Z,37.25
2022-08-29T17:03:40.086Z,37.18
2022-08-29T17:06:10.117Z,36.57
2022-08-29T17:08:39.305Z,37.23
2022-08-29T17:11:09.872Z,36.33
2022-08-29T17:13:40.732Z,36.96
2022-08-29T17:16:10.949Z,37.03
2022-08-29T17:18:41.703Z,37.35
2022-08-29T17:21:12.432Z,37.63
2022-08-29T17:23:43.463Z,38.00
2022-08-29T17:26:17.447Z,38.49
2022-08-29T17:28:49.312Z,38.95
2022-08-29T17:31:20.145Z,39.76
2022-08-29T17:33:50.042Z,40.46
2022-08-29T17:36:21.257Z,41.39
2022-08-29T17:38:51.534Z,41.83
2022-08-29T17:41:24.245Z,42.01
2022-08-29T17:43:54.629Z,42.26
2022-08-29T17:46:24.562Z,42.33
2022-08-29T17:48:54.621Z,42.51
2022-08-29T17:51:24.590Z,42.66
2022-08-29T17:53:54.622Z,42.68
2022-08-29T17:56:30.576Z,42.85
2022-08-29T17:59:04.163Z,42.27
2022-08-29T18:01:35.723Z,41.75
2022-08-29T18:04:06.057Z,41.90
2022-08-29T18:06:35.948Z,41.94
2022-08-29T18:09:06.696Z,42.17
2022-08-29T18:11:40.557Z,41.76
2022-08-29T18:14:11.259Z,42.11
2022-08-29T18:16:42.133Z,41.87
2022-08-29T18:19:13.547Z,41.60
2022-08-29T18:21:44.383Z,41.17
2022-08-29T18:24:15.757Z,41.86
2022-08-29T18:26:48.788Z,41.61
2022-08-29T18:29:19.181Z,41.34
2022-08-29T18:31:49.308Z,42.12
2022-08-29T18:34:19.932Z,43.24
2022-08-29T18:36:49.990Z,42.70
2022-08-29T18:39:20.279Z,42.59
2022-08-29T18:41:52.190Z,43.00
2022-08-29T18:44:24.582Z,43.33
2022-08-29T18:46:54.828Z,42.11
2022-08-29T18:49:44.801Z,42.22
2022-08-29T18:52:15.409Z,42.72
2022-08-29T18:54:45.617Z,43.05
2022-08-29T18:57:16.881Z,42.47
2022-08-29T18:59:46.895Z,42.01
2022-08-29T19:02:16.796Z,42.10
2022-08-29T19:04:47.362Z,42.36
2022-08-29T19:07:24.221Z,42.13
2022-08-29T19:09:54.682Z,41.54
2022-08-29T19:12:26.471Z,41.75
2022-08-29T19:14:57.174Z,41.84
2022-08-29T19:17:27.344Z,42.49
2022-08-29T19:20:15.007Z,42.56
2022-08-29T19:22:46.715Z,42.03
2022-08-29T19:25:16.692Z,41.99
2022-08-29T19:27:48.061Z,42.52
2022-08-29T19:30:38.137Z,41.61
2022-08-29T19:33:09.483Z,41.61
2022-08-29T19:35:39.979Z,41.42
2022-08-29T19:38:10.101Z,41.23
2022-08-29T19:40:40.658Z,41.02
2022-08-29T19:43:14.226Z,41.11
2022-08-29T19:45:46.038Z,41.47
2022-08-29T19:48:16.033Z,41.17
2022-08-29T19:50:48.026Z,41.65
2022-08-29T19:53:24.706Z,41.48
2022-08-29T19:55:57.427Z,41.72
2022-08-29T19:58:31.454Z,42.33
2022-08-29T20:01:03.325Z,42.36
2022-08-29T20:03:34.433Z,42.37
2022-08-29T20:06:06.955Z,42.14
2022-08-29T20:08:39.811Z,41.74
2022-08-29T20:11:12.723Z,42.10
2022-08-29T20:13:50.073Z,42.21
2022-08-29T20:16:24.298Z,42.29
2022-08-29T20:18:55.212Z,42.33
2022-08-29T20:21:26.342Z,42.36
2022-08-29T20:23:58.615Z,42.99
2022-08-29T20:26:31.533Z,42.65
2022-08-29T20:29:07.104Z,42.65
2022-08-29T20:31:38.670Z,43.28
2022-08-29T20:34:08.753Z,43.16
2022-08-29T20:36:56.018Z,43.24
2022-08-29T20:39:26.645Z,43.33
2022-08-29T20:41:58.588Z,43.40
2022-08-29T20:44:34.366Z,43.78
2022-08-29T20:47:05.632Z,43.88
2022-08-29T20:49:37.297Z,43.97
2022-08-29T20:52:07.234Z,44.02
2022-08-29T20:54:38.989Z,44.46
2022-08-29T20:57:09.414Z,44.40
2022-08-29T20:59:44.905Z,44.56
2022-08-29T21:02:15.041Z,44.72
2022-08-29T21:05:02.159Z,44.48
2022-08-29T21:07:32.022Z,44.95
2022-08-29T21:10:02.241Z,44.94
2022-08-29T21:12:32.775Z,44.97
2022-08-29T21:15:05.017Z,44.94
2022-08-29T21:17:35.672Z,44.58
2022-08-29T21:20:07.648Z,44.95
2022-08-29T21:22:37.539Z,44.80
2022-08-29T21:25:08.088Z,44.93
2022-08-29T21:27:38.800Z,44.87
2022-08-29T21:30:11.694Z,45.02
2022-08-29T21:32:41.941Z,45.14
2022-08-29T21:35:11.891Z,45.48
2022-08-29T21:37:41.837Z,45.46
2022-08-29T21:40:13.267Z,45.41
2022-08-29T21:42:43.216Z,45.71
2022-08-29T21:45:14.871Z,45.77
2022-08-29T21:47:48.729Z,45.83
2022-08-29T21:50:19.133Z,46.00
2022-08-29T21:52:49.701Z,46.42
2022-08-29T21:55:21.745Z,46.70
2022-08-29T21:57:55.404Z,46.72
2022-08-29T22:00:28.270Z,46.49
2022-08-29T22:02:58.408Z,46.93
2022-08-29T22:05:30.887Z,47.04
2022-08-29T22:08:03.001Z,47.31
2022-08-29T22:10:35.680Z,47.25
2022-08-29T22:13:07.937Z,47.68
2022-08-29T22:15:57.203Z,47.54
2022-08-29T22:18:27.687Z,47.94
2022-08-29T22:21:02.445Z,47.93
2022-08-29T22:23:32.457Z,48.00
2022-08-29T22:26:02.300Z,48.19
2022-08-29T22:28:32.264Z,48.46
2022-08-29T22:31:03.465Z,48.36
2022-08-29T22:33:33.435Z,48.26
2022-08-29T22:36:03.699Z,48.28
2022-08-29T22:38:33.615Z,48.49
2022-08-29T22:41:03.474Z,48.45
2022-08-29T22:43:33.285Z,48.77
2022-08-29T22:46:10.261Z,48.46
2022-08-29T22:48:40.826Z,48.63
2022-08-29T22:51:16.728Z,48.68
2022-08-29T22:54:08.251Z,48.84
2022-08-29T22:56:39.831Z,48.86
2022-08-29T22:59:10.668Z,49.06
2022-08-29T23:01:45.518Z,49.40
2022-08-29T23:04:15.465Z,49.68
2022-08-29T23:06:45.475Z,49.79
2022-08-29T23:09:15.496Z,50.81
2022-08-29T23:11:47.351Z,50.89
2022-08-29T23:14:20.805Z,51.53
2022-08-29T23:16:52.491Z,51.78
2022-08-29T23:19:22.376Z,51.88
2022-08-29T23:21:52.391Z,52.43
2022-08-29T23:24:22.355Z,52.98
2022-08-29T23:26:52.320Z,53.29
2022-08-29T23:29:22.269Z,53.53
2022-08-29T23:31:53.583Z,53.14
2022-08-29T23:34:24.096Z,53.77
2022-08-29T23:36:54.032Z,53.74
2022-08-29T23:39:24.027Z,53.75
2022-08-29T23:41:54.094Z,53.92
2022-08-29T23:44:25.152Z,53.82
2022-08-29T23:46:57.986Z,54.04
2022-08-29T23:49:29.741Z,54.23
2022-08-29T23:52:01.244Z,54.05
2022-08-29T23:54:31.665Z,54.05
2022-08-29T23:57:02.680Z,54.38
2022-08-29T23:59:51.022Z,54.55
